< < Back
Terminal Aerodrome Forecast


Current Version              Previous Versions:   1  2  3  4  5  6  7  8  9  

Terminal Aerodrome Forecast

545
FTUS44 KMRX 061121
TAFCHA
TAF
KCHA 061121Z 0612/0712 36010KT P6SM BKN025
     FM061400 36007KT P6SM SKC
     FM070000 00000KT P6SM SKC=



Latest METAR

486
SAUS80 KWBC 062000 RRA
MTRCHA
METAR KCHA 061953Z 03006KT 10SM SCT035 06/M08 A3045 RMK AO2 SLP316
T00611078


USA.gov is the U.S. government's official web portal to all federal, state and local government web resources and services.